Time;durP1;ratioP1;P1;durP2;ratioP2;P2;SDS_P1;SDS_P2;PMS_P1;PMS_P2;Temp;Humidity;BMP_temperature;BMP_pressure;BME280_temperature;BME280_humidity;BME280_pressure;Samples;Min_cycle;Max_cycle;Signal;HPM_P1;HPM_P2
2021/08/24 00:00:37;;;;;;;3.83;0.95;;;;;;;;;;5132396;27;20050;-72
2021/08/24 00:03:04;;;;;;;7.25;1.45;;;;;;;;;;5132634;27;20047;-72
2021/08/24 00:05:33;;;;;;;2.10;1.20;;;;;;;;;;5129896;27;20058;-72
2021/08/24 00:08:00;;;;;;;2.25;0.80;;;;;;;;;;5132349;27;20054;-71
2021/08/24 00:10:28;;;;;;;2.25;1.13;;;;;;;;;;5131559;27;20472;-71
2021/08/24 00:12:54;;;;;;;1.77;0.98;;;;;;;;;;5128351;27;20055;-72
2021/08/24 00:15:23;;;;;;;3.00;1.10;;;;;;;;;;5128554;27;20043;-72
2021/08/24 00:17:49;;;;;;;1.58;1.00;;;;;;;;;;5132691;27;20062;-72
2021/08/24 00:20:16;;;;;;;4.15;1.00;;;;;;;;;;5132706;27;20039;-71
2021/08/24 00:22:42;;;;;;;4.03;1.10;;;;;;;;;;5132513;27;20050;-71
2021/08/24 00:25:11;;;;;;;3.90;1.23;;;;;;;;;;5132538;27;20058;-71
2021/08/24 00:27:38;;;;;;;3.55;1.48;;;;;;;;;;5132418;28;20047;-71
2021/08/24 00:30:06;;;;;;;1.58;0.82;;;;;;;;;;5132393;28;20526;-71
2021/08/24 00:32:35;;;;;;;3.65;1.30;;;;;;;;;;5131951;28;20047;-71
2021/08/24 00:35:01;;;;;;;1.75;1.00;;;;;;;;;;5132563;28;20047;-72
2021/08/24 00:37:28;;;;;;;2.72;1.00;;;;;;;;;;5132655;28;20043;-71
2021/08/24 00:39:54;;;;;;;2.35;1.00;;;;;;;;;;5132541;28;20043;-71
2021/08/24 00:42:21;;;;;;;1.90;1.00;;;;;;;;;;5132372;28;20054;-71
2021/08/24 00:44:49;;;;;;;2.65;1.10;;;;;;;;;;5132575;28;20062;-71
2021/08/24 00:47:16;;;;;;;3.30;1.17;;;;;;;;;;5132317;28;20066;-71
2021/08/24 00:49:46;;;;;;;1.67;0.88;;;;;;;;;;5135579;27;20479;-71
2021/08/24 00:52:15;;;;;;;2.67;1.10;;;;;;;;;;5136584;27;20042;-71
2021/08/24 00:54:42;;;;;;;3.13;1.08;;;;;;;;;;5136473;27;20055;-72
2021/08/24 00:57:14;;;;;;;2.83;1.17;;;;;;;;;;5136547;27;20429;-72
2021/08/24 00:59:41;;;;;;;4.57;1.00;;;;;;;;;;5136696;27;20511;-72
2021/08/24 01:02:08;;;;;;;2.75;0.80;;;;;;;;;;5137305;27;20390;-71
2021/08/24 01:04:35;;;;;;;2.70;1.23;;;;;;;;;;5136094;27;20395;-71
2021/08/24 01:07:06;;;;;;;2.30;1.30;;;;;;;;;;5136258;27;20039;-71
2021/08/24 01:09:37;;;;;;;1.73;0.90;;;;;;;;;;5135268;27;20047;-70
2021/08/24 01:12:09;;;;;;;3.60;1.00;;;;;;;;;;5134908;27;20051;-70
2021/08/24 01:14:43;;;;;;;3.40;1.27;;;;;;;;;;5135386;27;20494;-71
2021/08/24 01:17:14;;;;;;;2.35;1.13;;;;;;;;;;5136026;27;20396;-71
2021/08/24 01:19:55;;;;;;;2.63;1.23;;;;;;;;;;5135721;27;20047;-71
2021/08/24 01:22:56;;;;;;;4.85;1.60;;;;;;;;;;5115633;28;20058;-71
2021/08/24 01:25:27;;;;;;;4.07;1.05;;;;;;;;;;5115305;28;20058;-71
2021/08/24 01:27:59;;;;;;;3.78;1.27;;;;;;;;;;5135789;27;20054;-71
2021/08/24 01:30:42;;;;;;;1.90;0.90;;;;;;;;;;5135336;27;20065;-71
2021/08/24 01:33:11;;;;;;;1.55;0.90;;;;;;;;;;5135962;27;20475;-71
2021/08/24 01:36:07;;;;;;;4.63;1.08;;;;;;;;;;5135667;27;20055;-71
2021/08/24 01:38:38;;;;;;;5.77;1.00;;;;;;;;;;5135365;27;20043;-71
2021/08/24 01:41:09;;;;;;;2.70;0.85;;;;;;;;;;5135615;27;20425;-71
2021/08/24 01:43:40;;;;;;;2.00;1.10;;;;;;;;;;5135341;27;20071;-71
2021/08/24 01:46:14;;;;;;;1.92;1.00;;;;;;;;;;5135478;27;20047;-71
2021/08/24 01:48:43;;;;;;;4.32;1.10;;;;;;;;;;5135144;27;20080;-71
2021/08/24 01:51:14;;;;;;;2.50;1.13;;;;;;;;;;5135535;27;20052;-71
2021/08/24 01:53:42;;;;;;;4.43;1.15;;;;;;;;;;5135385;27;20047;-71
2021/08/24 01:56:11;;;;;;;3.65;1.02;;;;;;;;;;5134915;27;20047;-71
2021/08/24 01:58:42;;;;;;;2.72;1.10;;;;;;;;;;5135239;27;20057;-71
2021/08/24 02:01:10;;;;;;;7.20;1.27;;;;;;;;;;5134849;27;20050;-71
2021/08/24 02:03:39;;;;;;;3.75;1.02;;;;;;;;;;5134966;27;20039;-71
2021/08/24 02:06:10;;;;;;;4.72;1.20;;;;;;;;;;5135202;27;20054;-71
2021/08/24 02:08:39;;;;;;;4.65;1.33;;;;;;;;;;5135043;27;20047;-71
2021/08/24 02:11:06;;;;;;;6.97;1.42;;;;;;;;;;5134072;27;20503;-71
2021/08/24 02:13:35;;;;;;;1.75;1.10;;;;;;;;;;5133400;27;20054;-71
2021/08/24 02:16:03;;;;;;;4.32;1.27;;;;;;;;;;5134184;27;20043;-71
2021/08/24 02:18:32;;;;;;;4.88;1.38;;;;;;;;;;5134642;27;20058;-71
2021/08/24 02:21:03;;;;;;;2.30;1.10;;;;;;;;;;5134639;27;20054;-71
2021/08/24 02:23:31;;;;;;;3.25;1.70;;;;;;;;;;5134629;27;20560;-71
2021/08/24 02:26:01;;;;;;;3.22;1.48;;;;;;;;;;5134940;27;20464;-71
2021/08/24 02:28:31;;;;;;;3.65;1.60;;;;;;;;;;5134496;27;20392;-71
2021/08/24 02:31:01;;;;;;;4.28;2.03;;;;;;;;;;5134608;27;20486;-71
2021/08/24 02:33:33;;;;;;;4.93;1.90;;;;;;;;;;5134405;27;20470;-71
2021/08/24 02:36:02;;;;;;;4.93;1.67;;;;;;;;;;5134731;27;20055;-71
2021/08/24 02:38:30;;;;;;;4.70;2.10;;;;;;;;;;5134564;27;20464;-71
2021/08/24 02:41:02;;;;;;;4.55;2.30;;;;;;;;;;5134316;27;20070;-71
2021/08/24 02:43:32;;;;;;;4.50;2.63;;;;;;;;;;5134187;27;20483;-71
2021/08/24 02:46:03;;;;;;;7.03;2.13;;;;;;;;;;5134087;27;20063;-71
2021/08/24 02:48:30;;;;;;;3.88;2.50;;;;;;;;;;5134447;27;20050;-71
2021/08/24 02:50:57;;;;;;;4.28;2.50;;;;;;;;;;5134272;27;20043;-71
2021/08/24 02:53:24;;;;;;;4.93;2.65;;;;;;;;;;5134128;27;20051;-71
2021/08/24 02:55:51;;;;;;;4.45;2.58;;;;;;;;;;5133932;27;20054;-71
2021/08/24 02:58:19;;;;;;;4.55;2.60;;;;;;;;;;5133822;27;20055;-71
2021/08/24 03:00:46;;;;;;;7.18;2.97;;;;;;;;;;5134028;27;20514;-71
2021/08/24 03:03:13;;;;;;;5.45;2.40;;;;;;;;;;5134085;27;20100;-71
2021/08/24 03:05:39;;;;;;;5.90;2.80;;;;;;;;;;5134159;27;20047;-71
2021/08/24 03:08:06;;;;;;;5.53;2.63;;;;;;;;;;5133525;27;20062;-71
2021/08/24 03:10:34;;;;;;;7.78;3.70;;;;;;;;;;5133617;27;20476;-71
2021/08/24 03:13:10;;;;;;;4.35;2.83;;;;;;;;;;5130848;27;20039;-71
2021/08/24 03:15:44;;;;;;;6.38;2.97;;;;;;;;;;5132697;27;20092;-71
2021/08/24 03:18:15;;;;;;;5.85;2.80;;;;;;;;;;5133502;27;20051;-71
2021/08/24 03:20:43;;;;;;;7.40;3.47;;;;;;;;;;5133616;27;20499;-71
2021/08/24 03:23:12;;;;;;;7.47;3.03;;;;;;;;;;5129393;27;20081;-71
2021/08/24 03:25:42;;;;;;;5.30;2.70;;;;;;;;;;5113194;28;20472;-71
2021/08/24 03:28:12;;;;;;;7.90;3.40;;;;;;;;;;5114324;27;20522;-71
2021/08/24 03:30:40;;;;;;;5.82;3.15;;;;;;;;;;5112997;28;20055;-71
2021/08/24 03:33:07;;;;;;;6.85;3.20;;;;;;;;;;5117870;27;20080;-71
2021/08/24 03:35:33;;;;;;;5.68;3.13;;;;;;;;;;5133198;27;20496;-71
2021/08/24 03:38:00;;;;;;;6.03;2.78;;;;;;;;;;5133337;27;20509;-71
2021/08/24 03:40:26;;;;;;;6.55;2.88;;;;;;;;;;5133495;27;20495;-71
2021/08/24 03:42:53;;;;;;;6.85;2.90;;;;;;;;;;5132991;27;20411;-71
2021/08/24 03:45:20;;;;;;;6.47;2.38;;;;;;;;;;5133203;27;20055;-71
2021/08/24 03:47:48;;;;;;;6.00;2.78;;;;;;;;;;5132499;27;20055;-70
2021/08/24 03:50:14;;;;;;;9.10;3.22;;;;;;;;;;5132795;27;20510;-71
2021/08/24 03:52:41;;;;;;;6.68;3.38;;;;;;;;;;5133183;27;20058;-71
2021/08/24 03:55:08;;;;;;;6.53;2.65;;;;;;;;;;5132982;27;20054;-71
2021/08/24 03:57:34;;;;;;;4.68;2.63;;;;;;;;;;5132757;27;20046;-71
2021/08/24 04:00:03;;;;;;;6.72;3.22;;;;;;;;;;5132812;27;20058;-71
2021/08/24 04:02:29;;;;;;;5.00;3.28;;;;;;;;;;5133051;27;20096;-71
2021/08/24 04:05:01;;;;;;;5.15;3.17;;;;;;;;;;5133555;27;20051;-71
2021/08/24 04:07:28;;;;;;;13.30;3.53;;;;;;;;;;5133044;27;20047;-71
2021/08/24 04:09:54;;;;;;;4.68;2.60;;;;;;;;;;5132982;27;20047;-71
2021/08/24 04:12:21;;;;;;;12.80;3.70;;;;;;;;;;5132541;27;20043;-71
2021/08/24 04:14:48;;;;;;;10.05;3.88;;;;;;;;;;5131464;27;20050;-72
2021/08/24 04:17:14;;;;;;;10.75;4.60;;;;;;;;;;5131882;27;20557;-71
2021/08/24 04:19:40;;;;;;;7.35;3.20;;;;;;;;;;5132765;27;20467;-71
2021/08/24 04:22:10;;;;;;;9.13;3.95;;;;;;;;;;5132459;27;20807;-71
2021/08/24 04:24:37;;;;;;;7.68;3.22;;;;;;;;;;5131757;27;20055;-71
2021/08/24 04:27:04;;;;;;;6.22;3.60;;;;;;;;;;5132492;27;20050;-71
2021/08/24 04:29:31;;;;;;;9.82;3.83;;;;;;;;;;5132289;28;20058;-71
2021/08/24 04:31:57;;;;;;;6.88;3.60;;;;;;;;;;5132613;28;20054;-71
2021/08/24 04:34:24;;;;;;;6.63;3.78;;;;;;;;;;5132523;28;20051;-72
2021/08/24 04:36:50;;;;;;;7.95;3.42;;;;;;;;;;5132267;28;20055;-71
2021/08/24 04:39:19;;;;;;;11.07;3.42;;;;;;;;;;5132492;28;20058;-71
2021/08/24 04:41:45;;;;;;;8.80;3.53;;;;;;;;;;5132867;28;20108;-71
2021/08/24 04:44:11;;;;;;;7.07;3.72;;;;;;;;;;5132218;28;20384;-71
2021/08/24 04:46:38;;;;;;;5.68;3.30;;;;;;;;;;5132441;28;20498;-71
2021/08/24 04:49:04;;;;;;;10.88;3.90;;;;;;;;;;5132014;28;20047;-71
2021/08/24 04:51:31;;;;;;;12.13;4.30;;;;;;;;;;5128389;27;20039;-71
2021/08/24 04:53:57;;;;;;;9.60;4.18;;;;;;;;;;5132237;28;20055;-71
2021/08/24 04:56:25;;;;;;;8.43;3.58;;;;;;;;;;5132340;28;20054;-71
2021/08/24 04:58:52;;;;;;;5.60;3.60;;;;;;;;;;5131726;28;20058;-71
2021/08/24 05:01:18;;;;;;;7.75;3.67;;;;;;;;;;5132117;28;20368;-71
2021/08/24 05:03:45;;;;;;;8.40;3.70;;;;;;;;;;5132300;28;20058;-71
2021/08/24 05:06:11;;;;;;;6.32;3.17;;;;;;;;;;5132243;28;20047;-71
2021/08/24 05:08:37;;;;;;;7.63;3.70;;;;;;;;;;5132128;28;20058;-71
2021/08/24 05:11:05;;;;;;;5.85;3.60;;;;;;;;;;5129696;28;20043;-71
2021/08/24 05:13:33;;;;;;;7.32;4.18;;;;;;;;;;5129675;28;20039;-71
2021/08/24 05:15:59;;;;;;;6.95;3.72;;;;;;;;;;5128844;28;20040;-71
2021/08/24 05:18:26;;;;;;;6.70;3.72;;;;;;;;;;5128771;28;20057;-71
2021/08/24 05:21:01;;;;;;;6.10;3.67;;;;;;;;;;5131473;27;20072;-71
2021/08/24 05:23:28;;;;;;;5.40;3.40;;;;;;;;;;5131587;28;20419;-71
2021/08/24 05:25:54;;;;;;;7.90;4.22;;;;;;;;;;5131451;28;20043;-71
2021/08/24 05:28:21;;;;;;;8.50;3.92;;;;;;;;;;5131955;28;20047;-71
2021/08/24 05:30:49;;;;;;;8.95;4.00;;;;;;;;;;5131646;28;20077;-71
2021/08/24 05:33:15;;;;;;;8.93;3.35;;;;;;;;;;5131881;28;20515;-71
2021/08/24 05:35:42;;;;;;;10.57;4.00;;;;;;;;;;5132740;27;20043;-71
2021/08/24 05:38:08;;;;;;;5.75;3.80;;;;;;;;;;5135207;27;20079;-71
2021/08/24 05:40:35;;;;;;;8.82;3.78;;;;;;;;;;5135076;27;20043;-71
2021/08/24 05:43:01;;;;;;;5.97;3.83;;;;;;;;;;5134777;27;20067;-71
2021/08/24 05:45:28;;;;;;;5.25;3.47;;;;;;;;;;5134665;27;20055;-71
2021/08/24 05:47:55;;;;;;;9.70;3.72;;;;;;;;;;5135216;27;20476;-71
2021/08/24 05:50:24;;;;;;;10.82;4.45;;;;;;;;;;5135259;27;20411;-71
2021/08/24 05:52:51;;;;;;;10.00;4.30;;;;;;;;;;5135009;27;20039;-71
2021/08/24 05:55:17;;;;;;;8.10;4.05;;;;;;;;;;5134937;27;20054;-71
2021/08/24 05:57:44;;;;;;;10.82;4.43;;;;;;;;;;5134784;27;20058;-71
2021/08/24 06:00:11;;;;;;;7.13;4.25;;;;;;;;;;5135220;27;20051;-71
2021/08/24 06:02:38;;;;;;;7.75;4.05;;;;;;;;;;5114488;28;20051;-71
2021/08/24 06:05:08;;;;;;;8.20;3.72;;;;;;;;;;5114696;28;20059;-71
2021/08/24 06:07:37;;;;;;;8.40;3.58;;;;;;;;;;5115198;27;20051;-71
2021/08/24 06:10:04;;;;;;;6.70;4.18;;;;;;;;;;5135226;27;20051;-71
2021/08/24 06:12:30;;;;;;;7.72;4.60;;;;;;;;;;5134801;27;20050;-71
2021/08/24 06:14:56;;;;;;;7.05;4.43;;;;;;;;;;5134075;27;20046;-71
2021/08/24 06:17:23;;;;;;;8.35;4.47;;;;;;;;;;5133767;27;20062;-71
2021/08/24 06:19:49;;;;;;;9.15;5.75;;;;;;;;;;5134160;27;20047;-71
2021/08/24 06:22:17;;;;;;;8.30;5.00;;;;;;;;;;5134533;27;20043;-71
2021/08/24 06:24:44;;;;;;;7.45;4.60;;;;;;;;;;5134650;27;20058;-71
2021/08/24 06:27:10;;;;;;;8.90;5.22;;;;;;;;;;5114367;28;20133;-71
2021/08/24 06:29:37;;;;;;;8.07;4.47;;;;;;;;;;5114116;27;20047;-71
2021/08/24 06:32:05;;;;;;;8.27;4.80;;;;;;;;;;5115036;27;20043;-71
2021/08/24 06:34:33;;;;;;;10.32;4.90;;;;;;;;;;5134537;27;20463;-71
2021/08/24 06:36:59;;;;;;;11.50;6.78;;;;;;;;;;5134604;27;20446;-71
2021/08/24 06:39:27;;;;;;;8.10;4.50;;;;;;;;;;5133878;27;20074;-71
2021/08/24 06:41:53;;;;;;;10.85;5.43;;;;;;;;;;5134257;27;20058;-71
2021/08/24 06:44:20;;;;;;;7.00;4.90;;;;;;;;;;5133842;27;20050;-71
2021/08/24 06:46:46;;;;;;;8.40;5.00;;;;;;;;;;5133913;27;20047;-71
2021/08/24 06:49:13;;;;;;;9.82;4.78;;;;;;;;;;5134274;27;20051;-71
2021/08/24 06:51:39;;;;;;;9.57;4.65;;;;;;;;;;5113851;28;20449;-71
2021/08/24 06:54:06;;;;;;;8.10;5.05;;;;;;;;;;5127077;27;20061;-71
2021/08/24 06:56:35;;;;;;;8.13;5.03;;;;;;;;;;5134214;27;20172;-71
2021/08/24 06:59:03;;;;;;;9.88;5.25;;;;;;;;;;5134074;27;20395;-71
2021/08/24 07:01:30;;;;;;;8.65;5.43;;;;;;;;;;5133830;27;20053;-71
2021/08/24 07:03:56;;;;;;;8.65;5.50;;;;;;;;;;5133910;27;20058;-71
2021/08/24 07:06:23;;;;;;;9.50;5.45;;;;;;;;;;5133332;27;20043;-71
2021/08/24 07:08:53;;;;;;;9.18;5.20;;;;;;;;;;5133833;27;20047;-71
2021/08/24 07:11:20;;;;;;;9.45;5.07;;;;;;;;;;5134110;27;20130;-71
2021/08/24 07:13:50;;;;;;;10.52;5.93;;;;;;;;;;5133528;27;20043;-71
2021/08/24 07:16:17;;;;;;;8.35;4.72;;;;;;;;;;5132091;27;20420;-71
2021/08/24 07:18:43;;;;;;;9.73;5.68;;;;;;;;;;5133146;27;20065;-71
2021/08/24 07:21:14;;;;;;;10.40;6.43;;;;;;;;;;5133416;27;20043;-71
2021/08/24 07:23:40;;;;;;;10.30;5.90;;;;;;;;;;5133348;27;20055;-71
2021/08/24 07:26:07;;;;;;;10.00;6.10;;;;;;;;;;5133681;27;20043;-71
2021/08/24 07:28:34;;;;;;;11.20;5.90;;;;;;;;;;5133276;27;20402;-71
2021/08/24 07:31:01;;;;;;;10.52;5.82;;;;;;;;;;5133447;27;20051;-71
2021/08/24 07:33:28;;;;;;;8.93;5.85;;;;;;;;;;5133513;27;20043;-71
2021/08/24 07:35:54;;;;;;;10.75;5.97;;;;;;;;;;5133615;27;20487;-71
2021/08/24 07:38:21;;;;;;;9.32;6.53;;;;;;;;;;5133393;27;20047;-71
2021/08/24 07:40:48;;;;;;;11.48;6.72;;;;;;;;;;5133674;27;20051;-71
2021/08/24 07:43:15;;;;;;;10.52;6.63;;;;;;;;;;5133012;27;20053;-71
2021/08/24 07:45:42;;;;;;;12.18;7.57;;;;;;;;;;5132945;27;20039;-71
2021/08/24 07:48:10;;;;;;;13.55;7.00;;;;;;;;;;5133010;27;20051;-71
2021/08/24 07:50:36;;;;;;;9.38;6.22;;;;;;;;;;5133180;27;20400;-71
2021/08/24 07:53:03;;;;;;;9.70;6.57;;;;;;;;;;5132764;27;20039;-71
2021/08/24 07:55:30;;;;;;;10.40;7.35;;;;;;;;;;5132958;27;20150;-71
2021/08/24 07:57:56;;;;;;;10.68;7.22;;;;;;;;;;5131629;27;20043;-70
2021/08/24 08:00:23;;;;;;;10.40;6.70;;;;;;;;;;5125988;27;20486;-71
2021/08/24 08:02:50;;;;;;;8.95;6.00;;;;;;;;;;5130492;27;20364;-70
2021/08/24 08:05:18;;;;;;;9.43;6.03;;;;;;;;;;5133232;27;20043;-71
2021/08/24 08:07:44;;;;;;;10.50;6.80;;;;;;;;;;5131885;27;20058;-71
2021/08/24 08:10:12;;;;;;;11.35;6.80;;;;;;;;;;5130830;27;20043;-71
2021/08/24 08:12:39;;;;;;;10.18;6.53;;;;;;;;;;5127467;27;20492;-71
2021/08/24 08:15:06;;;;;;;8.15;5.70;;;;;;;;;;5132736;27;20043;-71
2021/08/24 08:17:33;;;;;;;10.27;6.22;;;;;;;;;;5130858;27;20051;-71
2021/08/24 08:19:59;;;;;;;10.98;5.95;;;;;;;;;;5132247;27;20051;-71
2021/08/24 08:22:27;;;;;;;9.65;5.53;;;;;;;;;;5123854;27;20043;-71
2021/08/24 08:24:54;;;;;;;9.73;6.68;;;;;;;;;;5132256;27;20043;-71
2021/08/24 08:27:20;;;;;;;9.25;5.82;;;;;;;;;;5132565;27;20163;-71
2021/08/24 08:29:47;;;;;;;9.75;5.97;;;;;;;;;;5132052;28;20047;-71
2021/08/24 08:32:15;;;;;;;11.70;6.28;;;;;;;;;;5132490;28;20051;-71
2021/08/24 08:34:42;;;;;;;11.00;5.72;;;;;;;;;;5132614;28;20407;-71
2021/08/24 08:37:09;;;;;;;8.15;5.75;;;;;;;;;;5132658;28;20047;-71
2021/08/24 08:39:37;;;;;;;8.98;5.88;;;;;;;;;;5132474;28;20051;-71
2021/08/24 08:42:11;;;;;;;8.40;5.63;;;;;;;;;;5132177;28;20058;-71
2021/08/24 08:44:44;;;;;;;8.48;5.38;;;;;;;;;;5132732;28;20395;-71
2021/08/24 08:47:21;;;;;;;8.27;6.10;;;;;;;;;;5132349;28;20054;-71
2021/08/24 08:49:52;;;;;;;9.93;6.60;;;;;;;;;;5132702;28;20047;-71
2021/08/24 08:52:22;;;;;;;14.18;7.53;;;;;;;;;;5132168;28;20047;-71
2021/08/24 08:54:56;;;;;;;10.90;7.30;;;;;;;;;;5132199;28;20047;-71
2021/08/24 08:57:28;;;;;;;11.68;7.30;;;;;;;;;;5131823;28;20050;-71
2021/08/24 08:59:58;;;;;;;8.30;6.28;;;;;;;;;;5132455;28;20058;-71
2021/08/24 09:02:30;;;;;;;10.52;7.35;;;;;;;;;;5132153;28;20047;-71
2021/08/24 09:04:57;;;;;;;11.40;7.22;;;;;;;;;;5132190;28;20468;-71
2021/08/24 09:07:28;;;;;;;10.68;7.60;;;;;;;;;;5132306;28;20047;-71
2021/08/24 09:09:56;;;;;;;9.18;6.45;;;;;;;;;;5127362;28;20050;-71
2021/08/24 09:12:24;;;;;;;9.88;8.15;;;;;;;;;;5133189;27;20043;-71
2021/08/24 09:14:54;;;;;;;10.52;7.75;;;;;;;;;;5127719;27;20050;-71
2021/08/24 09:17:25;;;;;;;13.32;8.23;;;;;;;;;;5134718;27;20050;-71
2021/08/24 09:19:55;;;;;;;10.52;7.18;;;;;;;;;;5134681;27;20047;-71
2021/08/24 09:22:21;;;;;;;11.43;7.70;;;;;;;;;;5135705;27;20043;-71
2021/08/24 09:24:48;;;;;;;12.38;8.20;;;;;;;;;;5135762;27;20430;-71
2021/08/24 09:27:20;;;;;;;10.63;7.82;;;;;;;;;;5136023;27;20055;-71
2021/08/24 09:29:49;;;;;;;11.52;7.28;;;;;;;;;;5116143;27;20060;-71
2021/08/24 09:32:19;;;;;;;10.73;7.88;;;;;;;;;;5125385;27;20112;-71
2021/08/24 09:34:47;;;;;;;9.10;6.90;;;;;;;;;;5126578;27;20134;-67
2021/08/24 09:37:16;;;;;;;10.88;8.27;;;;;;;;;;5130854;27;20050;-71
2021/08/24 09:39:52;;;;;;;12.25;7.82;;;;;;;;;;5133287;27;20048;-71
2021/08/24 09:42:29;;;;;;;9.52;7.43;;;;;;;;;;5127732;27;20051;-71
2021/08/24 09:44:59;;;;;;;9.88;6.85;;;;;;;;;;5129206;27;20049;-70
2021/08/24 09:47:25;;;;;;;8.68;6.60;;;;;;;;;;5135215;27;20051;-71
2021/08/24 09:49:59;;;;;;;11.48;6.82;;;;;;;;;;5135133;27;20047;-71
2021/08/24 09:52:28;;;;;;;8.77;6.90;;;;;;;;;;5133891;27;20472;-70
2021/08/24 09:54:58;;;;;;;10.10;7.10;;;;;;;;;;5135115;27;20047;-72
2021/08/24 09:57:28;;;;;;;12.55;7.90;;;;;;;;;;5134457;27;20604;-71
2021/08/24 09:59:58;;;;;;;10.40;7.25;;;;;;;;;;5135402;27;20073;-71
2021/08/24 10:02:34;;;;;;;12.48;7.82;;;;;;;;;;5135326;27;20548;-69
2021/08/24 10:05:01;;;;;;;10.73;7.30;;;;;;;;;;5135080;27;20054;-71
2021/08/24 10:07:33;;;;;;;10.90;7.13;;;;;;;;;;5118654;27;20047;-71
2021/08/24 10:10:00;;;;;;;9.95;7.28;;;;;;;;;;5135085;27;20058;-70
2021/08/24 10:12:30;;;;;;;10.05;7.07;;;;;;;;;;5117768;27;20043;-70
2021/08/24 10:14:57;;;;;;;9.20;7.55;;;;;;;;;;5131984;27;20100;-70
2021/08/24 10:17:29;;;;;;;8.93;6.70;;;;;;;;;;5131648;27;20051;-71
2021/08/24 10:19:57;;;;;;;9.13;7.18;;;;;;;;;;5130900;27;20055;-71
2021/08/24 10:22:28;;;;;;;10.13;6.78;;;;;;;;;;5134358;27;20043;-71
2021/08/24 10:24:57;;;;;;;10.00;7.00;;;;;;;;;;5131222;27;20412;-71
2021/08/24 10:27:26;;;;;;;12.23;7.78;;;;;;;;;;5130923;27;20082;-70
2021/08/24 10:29:55;;;;;;;9.85;7.20;;;;;;;;;;5134367;27;20051;-71
2021/08/24 10:32:25;;;;;;;9.95;7.70;;;;;;;;;;5134520;27;20047;-71
2021/08/24 10:34:51;;;;;;;10.02;7.55;;;;;;;;;;5134521;27;20051;-70
2021/08/24 10:37:41;;;;;;;9.90;7.32;;;;;;;;;;5134279;27;20046;-70
2021/08/24 10:40:29;;;;;;;8.77;6.90;;;;;;;;;;5121006;27;20126;-70
2021/08/24 10:43:16;;;;;;;9.00;7.50;;;;;;;;;;5134147;27;20072;-70
2021/08/24 10:45:45;;;;;;;13.05;7.15;;;;;;;;;;5133835;27;20047;-70
2021/08/24 10:48:15;;;;;;;9.10;7.45;;;;;;;;;;5134047;27;20039;-71
2021/08/24 10:50:47;;;;;;;11.35;7.53;;;;;;;;;;5134333;27;20460;-70
2021/08/24 10:53:31;;;;;;;8.65;7.75;;;;;;;;;;5122517;27;20043;-70
2021/08/24 10:56:01;;;;;;;8.30;6.63;;;;;;;;;;5126740;27;20043;-70
2021/08/24 10:58:32;;;;;;;7.88;6.55;;;;;;;;;;5134330;27;20047;-70
2021/08/24 11:01:01;;;;;;;9.10;6.68;;;;;;;;;;5134541;27;20042;-70
2021/08/24 11:03:44;;;;;;;8.18;6.25;;;;;;;;;;5134147;27;20389;-70
2021/08/24 11:06:17;;;;;;;8.55;6.95;;;;;;;;;;5134035;27;20430;-70
2021/08/24 11:08:50;;;;;;;8.20;6.35;;;;;;;;;;5134156;27;20039;-70
2021/08/24 11:11:25;;;;;;;7.68;6.35;;;;;;;;;;5126366;27;20476;-70
2021/08/24 11:13:55;;;;;;;8.57;7.15;;;;;;;;;;5125753;27;20050;-70
2021/08/24 11:16:43;;;;;;;8.77;7.15;;;;;;;;;;5131516;27;20060;-70
2021/08/24 11:19:19;;;;;;;7.65;6.65;;;;;;;;;;5131341;27;20445;-70
2021/08/24 11:21:48;;;;;;;9.13;6.93;;;;;;;;;;5128567;27;20062;-70
2021/08/24 11:24:26;;;;;;;8.82;6.88;;;;;;;;;;5131160;27;20655;-69
2021/08/24 11:26:57;;;;;;;7.05;6.15;;;;;;;;;;5130977;27;20398;-70
2021/08/24 11:29:29;;;;;;;8.32;6.93;;;;;;;;;;5127454;27;20453;-70
2021/08/24 11:32:03;;;;;;;7.68;6.47;;;;;;;;;;5131923;27;20053;-70
2021/08/24 11:34:34;;;;;;;7.43;6.38;;;;;;;;;;5129066;27;20031;-69
2021/08/24 11:37:04;;;;;;;9.02;6.93;;;;;;;;;;5132341;27;20051;-69
2021/08/24 11:39:37;;;;;;;7.13;6.13;;;;;;;;;;5130417;27;20058;-69
2021/08/24 11:42:04;;;;;;;7.80;6.03;;;;;;;;;;5124073;27;20050;-69
2021/08/24 11:44:33;;;;;;;8.57;7.55;;;;;;;;;;5113404;27;20058;-69
2021/08/24 11:47:04;;;;;;;9.32;5.65;;;;;;;;;;5127112;27;20074;-70
2021/08/24 11:49:36;;;;;;;7.78;5.47;;;;;;;;;;5130924;27;20043;-70
2021/08/24 11:52:07;;;;;;;7.25;6.20;;;;;;;;;;5132583;27;20043;-70
2021/08/24 11:54:40;;;;;;;7.07;5.70;;;;;;;;;;5132060;27;20053;-70
2021/08/24 11:57:10;;;;;;;7.35;5.88;;;;;;;;;;5132647;27;20043;-70
2021/08/24 11:59:41;;;;;;;7.32;6.18;;;;;;;;;;5132541;27;20054;-70
2021/08/24 12:02:15;;;;;;;7.85;6.72;;;;;;;;;;5132844;27;20050;-70
2021/08/24 12:04:44;;;;;;;8.50;6.32;;;;;;;;;;5132096;27;20473;-70
2021/08/24 12:07:15;;;;;;;7.55;6.40;;;;;;;;;;5132765;27;20090;-70
2021/08/24 12:09:45;;;;;;;8.27;6.30;;;;;;;;;;5132549;27;20074;-70
2021/08/24 12:12:17;;;;;;;7.88;6.38;;;;;;;;;;5132925;27;20051;-70
2021/08/24 12:14:55;;;;;;;9.23;6.25;;;;;;;;;;5131702;27;20549;-70
2021/08/24 12:17:27;;;;;;;13.02;10.43;;;;;;;;;;5131938;27;20043;-70
2021/08/24 12:19:56;;;;;;;8.93;7.05;;;;;;;;;;5132274;27;20120;-70
2021/08/24 12:22:28;;;;;;;7.53;6.80;;;;;;;;;;5131227;27;20059;-70
2021/08/24 12:24:58;;;;;;;7.57;6.20;;;;;;;;;;5131461;27;20050;-70
2021/08/24 12:27:42;;;;;;;6.97;5.93;;;;;;;;;;5132721;27;20051;-70
2021/08/24 12:30:16;;;;;;;7.88;6.53;;;;;;;;;;5112329;28;20047;-70
2021/08/24 12:33:36;;;;;;;9.80;6.35;;;;;;;;;;5117831;28;20051;-70
2021/08/24 12:36:52;;;;;;;8.70;7.05;;;;;;;;;;5106697;28;20051;-70
2021/08/24 12:39:53;;;;;;;7.50;5.93;;;;;;;;;;5132589;28;20051;-70
2021/08/24 12:42:30;;;;;;;10.07;6.47;;;;;;;;;;5132635;28;20043;-70
2021/08/24 12:45:20;;;;;;;9.13;6.72;;;;;;;;;;5113431;28;20134;-70
2021/08/24 12:47:48;;;;;;;12.07;8.25;;;;;;;;;;5115713;27;20043;-70
2021/08/24 12:50:57;;;;;;;7.82;6.25;;;;;;;;;;5116182;28;20491;-70
2021/08/24 12:53:38;;;;;;;9.93;7.50;;;;;;;;;;5109701;27;20054;-70
2021/08/24 12:56:06;;;;;;;7.82;6.00;;;;;;;;;;5136480;27;20395;-70
2021/08/24 12:58:44;;;;;;;6.85;5.32;;;;;;;;;;5136049;27;20055;-70
2021/08/24 13:01:13;;;;;;;6.28;4.75;;;;;;;;;;5136024;27;20051;-70
2021/08/24 13:03:41;;;;;;;5.00;3.97;;;;;;;;;;5136274;27;20039;-70
2021/08/24 13:06:19;;;;;;;5.18;4.07;;;;;;;;;;5133923;27;20039;-70
2021/08/24 13:08:47;;;;;;;5.80;4.28;;;;;;;;;;5135741;27;20058;-70
2021/08/24 13:11:40;;;;;;;4.60;3.80;;;;;;;;;;5120902;27;20055;-70
2021/08/24 13:14:08;;;;;;;4.57;3.47;;;;;;;;;;5105049;27;20054;-70
2021/08/24 13:16:44;;;;;;;5.15;3.90;;;;;;;;;;5135593;27;20680;-70
2021/08/24 13:19:18;;;;;;;6.32;4.60;;;;;;;;;;5134817;27;20047;-70
2021/08/24 13:21:54;;;;;;;8.23;4.43;;;;;;;;;;5134822;27;20059;-70
2021/08/24 13:24:23;;;;;;;;;;;;;;;;;;5135742;27;20054;-70
2021/08/24 13:26:53;;;;;;;5.78;3.42;;;;;;;;;;5127453;27;19919;-69
2021/08/24 13:29:20;;;;;;;3.97;2.38;;;;;;;;;;5135514;27;20050;-70
2021/08/24 13:31:53;;;;;;;3.95;2.97;;;;;;;;;;5135861;27;20051;-70
2021/08/24 13:34:27;;;;;;;4.78;2.78;;;;;;;;;;5135385;27;20671;-70
2021/08/24 13:36:55;;;;;;;3.92;2.85;;;;;;;;;;5135035;27;20047;-71
2021/08/24 13:39:21;;;;;;;3.97;2.63;;;;;;;;;;5131247;27;20050;-70
2021/08/24 13:41:52;;;;;;;3.35;2.05;;;;;;;;;;5135717;27;20043;-70
2021/08/24 13:44:21;;;;;;;2.72;1.98;;;;;;;;;;5135169;27;20050;-70
2021/08/24 13:46:56;;;;;;;3.10;2.00;;;;;;;;;;5135126;27;20388;-70
2021/08/24 13:49:22;;;;;;;3.28;2.28;;;;;;;;;;5135331;27;20055;-70
2021/08/24 13:51:51;;;;;;;3.42;1.95;;;;;;;;;;5134494;27;20051;-70
2021/08/24 13:54:25;;;;;;;2.15;1.63;;;;;;;;;;5134891;27;20050;-71
2021/08/24 13:56:53;;;;;;;3.65;1.83;;;;;;;;;;5113473;28;20448;-70
2021/08/24 13:59:25;;;;;;;4.40;1.90;;;;;;;;;;5130224;27;20050;-70
2021/08/24 14:01:53;;;;;;;2.30;1.60;;;;;;;;;;5135246;27;20058;-70
2021/08/24 14:04:27;;;;;;;3.40;2.10;;;;;;;;;;5134608;27;20047;-70
2021/08/24 14:06:55;;;;;;;2.67;1.65;;;;;;;;;;5134798;27;20055;-70
2021/08/24 14:09:26;;;;;;;2.83;2.05;;;;;;;;;;5135025;27;20130;-70
2021/08/24 14:11:57;;;;;;;3.25;1.63;;;;;;;;;;5135206;27;20047;-70
2021/08/24 14:14:33;;;;;;;2.72;2.10;;;;;;;;;;5134586;27;20048;-70
2021/08/24 14:17:01;;;;;;;2.90;1.88;;;;;;;;;;5134629;27;20045;-70
2021/08/24 14:19:31;;;;;;;6.32;2.60;;;;;;;;;;5133776;27;20047;-70
2021/08/24 14:21:59;;;;;;;3.97;2.30;;;;;;;;;;5134809;27;20055;-70
2021/08/24 14:24:25;;;;;;;4.32;2.60;;;;;;;;;;5132895;27;20051;-70
2021/08/24 14:26:54;;;;;;;3.42;2.17;;;;;;;;;;5134589;27;20049;-70
2021/08/24 14:29:22;;;;;;;3.90;2.33;;;;;;;;;;5134186;27;20055;-70
2021/08/24 14:31:51;;;;;;;3.72;2.63;;;;;;;;;;5134696;27;20058;-70
2021/08/24 14:34:20;;;;;;;3.88;2.63;;;;;;;;;;5133657;27;20149;-70
2021/08/24 14:36:56;;;;;;;4.22;3.03;;;;;;;;;;5133688;27;20074;-70
2021/08/24 14:39:27;;;;;;;5.03;3.55;;;;;;;;;;5134246;27;20077;-70
2021/08/24 14:41:57;;;;;;;4.68;3.38;;;;;;;;;;5126025;27;20062;-70
2021/08/24 14:44:25;;;;;;;5.20;4.00;;;;;;;;;;5134171;27;20486;-70
2021/08/24 14:46:54;;;;;;;5.55;4.18;;;;;;;;;;5134365;27;20043;-70
2021/08/24 14:49:23;;;;;;;4.63;3.65;;;;;;;;;;5134213;27;20661;-69
2021/08/24 14:51:50;;;;;;;5.30;3.78;;;;;;;;;;5113820;28;20058;-69
2021/08/24 14:54:23;;;;;;;5.05;4.03;;;;;;;;;;5113219;28;20055;-69
2021/08/24 14:56:49;;;;;;;7.35;4.43;;;;;;;;;;5113516;28;20389;-69